sensor_id;sensor_type;location;lat;lon;timestamp;P1;durP1;ratioP1;P2;durP2;ratioP2
48026;SDS011;50714;49.208;5.364;2023-02-25T00:02:50;11.95;;;9.43;;
48026;SDS011;50714;49.208;5.364;2023-02-25T00:12:51;9.25;;;6.90;;
48026;SDS011;50714;49.208;5.364;2023-02-25T00:22:51;6.50;;;5.22;;
48026;SDS011;50714;49.208;5.364;2023-02-25T00:32:52;8.55;;;6.57;;
48026;SDS011;50714;49.208;5.364;2023-02-25T00:42:52;8.05;;;6.85;;
48026;SDS011;50714;49.208;5.364;2023-02-25T00:52:52;9.43;;;7.70;;
48026;SDS011;50714;49.208;5.364;2023-02-25T01:02:54;13.82;;;9.48;;
48026;SDS011;50714;49.208;5.364;2023-02-25T01:12:56;19.48;;;14.40;;
48026;SDS011;50714;49.208;5.364;2023-02-25T01:22:56;8.65;;;6.45;;
48026;SDS011;50714;49.208;5.364;2023-02-25T01:32:56;6.95;;;5.88;;
48026;SDS011;50714;49.208;5.364;2023-02-25T01:42:57;6.05;;;4.70;;
48026;SDS011;50714;49.208;5.364;2023-02-25T01:52:57;5.60;;;4.50;;
48026;SDS011;50714;49.208;5.364;2023-02-25T02:02:59;6.35;;;4.40;;
48026;SDS011;50714;49.208;5.364;2023-02-25T02:13:00;4.72;;;3.83;;
48026;SDS011;50714;49.208;5.364;2023-02-25T02:33:24;4.25;;;3.47;;
48026;SDS011;50714;49.208;5.364;2023-02-25T02:43:40;6.35;;;4.18;;
48026;SDS011;50714;49.208;5.364;2023-02-25T02:53:53;11.68;;;9.95;;
48026;SDS011;50714;49.208;5.364;2023-02-25T03:04:06;6.97;;;5.53;;
48026;SDS011;50714;49.208;5.364;2023-02-25T03:14:11;7.47;;;5.90;;
48026;SDS011;50714;49.208;5.364;2023-02-25T03:24:19;7.07;;;5.10;;
48026;SDS011;50714;49.208;5.364;2023-02-25T03:34:37;5.25;;;3.80;;
48026;SDS011;50714;49.208;5.364;2023-02-25T03:44:44;4.63;;;3.38;;
48026;SDS011;50714;49.208;5.364;2023-02-25T03:54:55;3.55;;;2.75;;
48026;SDS011;50714;49.208;5.364;2023-02-25T04:04:57;4.18;;;3.13;;
48026;SDS011;50714;49.208;5.364;2023-02-25T04:14:58;5.37;;;3.70;;
48026;SDS011;50714;49.208;5.364;2023-02-25T04:24:58;4.72;;;2.90;;
48026;SDS011;50714;49.208;5.364;2023-02-25T04:34:58;10.07;;;7.50;;
48026;SDS011;50714;49.208;5.364;2023-02-25T04:45:02;6.53;;;4.13;;
48026;SDS011;50714;49.208;5.364;2023-02-25T04:55:03;4.85;;;3.95;;
48026;SDS011;50714;49.208;5.364;2023-02-25T05:05:04;6.78;;;4.22;;
48026;SDS011;50714;49.208;5.364;2023-02-25T05:15:05;5.75;;;4.32;;
48026;SDS011;50714;49.208;5.364;2023-02-25T05:25:07;5.70;;;4.07;;
48026;SDS011;50714;49.208;5.364;2023-02-25T05:35:09;3.95;;;3.40;;
48026;SDS011;50714;49.208;5.364;2023-02-25T05:45:10;5.37;;;3.43;;
48026;SDS011;50714;49.208;5.364;2023-02-25T05:55:10;5.80;;;4.55;;
48026;SDS011;50714;49.208;5.364;2023-02-25T06:05:10;3.95;;;3.33;;
48026;SDS011;50714;49.208;5.364;2023-02-25T06:15:11;6.05;;;4.03;;
48026;SDS011;50714;49.208;5.364;2023-02-25T06:25:13;8.70;;;6.82;;
48026;SDS011;50714;49.208;5.364;2023-02-25T06:35:13;10.15;;;7.70;;
48026;SDS011;50714;49.208;5.364;2023-02-25T06:45:14;8.48;;;6.60;;
48026;SDS011;50714;49.208;5.364;2023-02-25T06:55:15;8.70;;;6.75;;
48026;SDS011;50714;49.208;5.364;2023-02-25T07:05:15;6.97;;;5.25;;
48026;SDS011;50714;49.208;5.364;2023-02-25T07:15:16;7.55;;;5.50;;
48026;SDS011;50714;49.208;5.364;2023-02-25T07:25:16;6.57;;;5.00;;
48026;SDS011;50714;49.208;5.364;2023-02-25T07:35:17;6.03;;;4.20;;
48026;SDS011;50714;49.208;5.364;2023-02-25T07:45:18;6.47;;;4.55;;
48026;SDS011;50714;49.208;5.364;2023-02-25T07:55:18;7.03;;;5.03;;
48026;SDS011;50714;49.208;5.364;2023-02-25T08:05:18;8.15;;;4.43;;
48026;SDS011;50714;49.208;5.364;2023-02-25T08:15:21;7.72;;;4.82;;
48026;SDS011;50714;49.208;5.364;2023-02-25T08:25:23;8.65;;;4.93;;
48026;SDS011;50714;49.208;5.364;2023-02-25T08:35:24;8.60;;;6.15;;
48026;SDS011;50714;49.208;5.364;2023-02-25T08:45:24;8.80;;;6.47;;
48026;SDS011;50714;49.208;5.364;2023-02-25T08:55:25;16.15;;;14.65;;
48026;SDS011;50714;49.208;5.364;2023-02-25T09:05:25;22.98;;;19.65;;
48026;SDS011;50714;49.208;5.364;2023-02-25T09:15:26;8.15;;;6.53;;
48026;SDS011;50714;49.208;5.364;2023-02-25T09:25:26;8.07;;;5.20;;
48026;SDS011;50714;49.208;5.364;2023-02-25T09:35:28;7.30;;;3.75;;
48026;SDS011;50714;49.208;5.364;2023-02-25T09:45:28;6.60;;;3.65;;
48026;SDS011;50714;49.208;5.364;2023-02-25T10:05:37;6.60;;;3.90;;
48026;SDS011;50714;49.208;5.364;2023-02-25T10:16:00;6.45;;;3.30;;
48026;SDS011;50714;49.208;5.364;2023-02-25T10:26:13;4.78;;;2.80;;
48026;SDS011;50714;49.208;5.364;2023-02-25T10:36:19;12.85;;;8.50;;
48026;SDS011;50714;49.208;5.364;2023-02-25T10:56:33;9.80;;;4.53;;
48026;SDS011;50714;49.208;5.364;2023-02-25T11:06:41;4.38;;;2.42;;
48026;SDS011;50714;49.208;5.364;2023-02-25T11:16:43;5.43;;;2.70;;
48026;SDS011;50714;49.208;5.364;2023-02-25T11:26:45;5.03;;;2.40;;
48026;SDS011;50714;49.208;5.364;2023-02-25T11:36:47;3.95;;;1.75;;
48026;SDS011;50714;49.208;5.364;2023-02-25T11:46:58;3.33;;;1.60;;
48026;SDS011;50714;49.208;5.364;2023-02-25T11:57:30;5.32;;;1.90;;
48026;SDS011;50714;49.208;5.364;2023-02-25T12:18:06;6.22;;;2.75;;
48026;SDS011;50714;49.208;5.364;2023-02-25T13:51:44;3.38;;;1.67;;
48026;SDS011;50714;49.208;5.364;2023-02-25T14:12:32;7.72;;;5.30;;
48026;SDS011;50714;49.208;5.364;2023-02-25T15:23:53;2.35;;;1.30;;
48026;SDS011;50714;49.208;5.364;2023-02-25T15:44:25;5.85;;;2.72;;
48026;SDS011;50714;49.208;5.364;2023-02-25T15:54:44;6.10;;;3.65;;
48026;SDS011;50714;49.208;5.364;2023-02-25T16:04:46;5.63;;;3.33;;
48026;SDS011;50714;49.208;5.364;2023-02-25T16:14:47;6.53;;;2.83;;
48026;SDS011;50714;49.208;5.364;2023-02-25T16:24:50;3.63;;;2.17;;
48026;SDS011;50714;49.208;5.364;2023-02-25T16:35:37;3.08;;;1.60;;
48026;SDS011;50714;49.208;5.364;2023-02-25T16:45:30;3.92;;;1.50;;
48026;SDS011;50714;49.208;5.364;2023-02-25T16:55:36;3.97;;;1.85;;
48026;SDS011;50714;49.208;5.364;2023-02-25T17:05:39;4.00;;;1.63;;
48026;SDS011;50714;49.208;5.364;2023-02-25T17:15:39;2.83;;;1.20;;
48026;SDS011;50714;49.208;5.364;2023-02-25T17:25:42;3.00;;;1.23;;
48026;SDS011;50714;49.208;5.364;2023-02-25T17:35:45;2.67;;;1.23;;
48026;SDS011;50714;49.208;5.364;2023-02-25T17:45:48;3.53;;;1.55;;
48026;SDS011;50714;49.208;5.364;2023-02-25T17:55:55;4.75;;;2.70;;
48026;SDS011;50714;49.208;5.364;2023-02-25T18:06:29;4.00;;;2.53;;
48026;SDS011;50714;49.208;5.364;2023-02-25T18:26:40;2.40;;;1.20;;
48026;SDS011;50714;49.208;5.364;2023-02-25T18:37:04;2.58;;;1.10;;
48026;SDS011;50714;49.208;5.364;2023-02-25T18:47:04;4.22;;;2.10;;
48026;SDS011;50714;49.208;5.364;2023-02-25T18:57:08;2.20;;;1.13;;
48026;SDS011;50714;49.208;5.364;2023-02-25T19:07:15;2.17;;;1.10;;
48026;SDS011;50714;49.208;5.364;2023-02-25T19:17:16;3.47;;;1.45;;
48026;SDS011;50714;49.208;5.364;2023-02-25T19:27:18;3.10;;;1.55;;
48026;SDS011;50714;49.208;5.364;2023-02-25T19:37:19;2.90;;;1.42;;
48026;SDS011;50714;49.208;5.364;2023-02-25T19:47:19;2.78;;;1.40;;
48026;SDS011;50714;49.208;5.364;2023-02-25T19:57:20;3.22;;;1.60;;
48026;SDS011;50714;49.208;5.364;2023-02-25T20:07:21;4.45;;;1.88;;
48026;SDS011;50714;49.208;5.364;2023-02-25T20:17:21;4.57;;;1.73;;
48026;SDS011;50714;49.208;5.364;2023-02-25T20:27:22;2.50;;;1.60;;
48026;SDS011;50714;49.208;5.364;2023-02-25T20:37:23;3.22;;;1.60;;
48026;SDS011;50714;49.208;5.364;2023-02-25T20:47:31;3.10;;;1.30;;
48026;SDS011;50714;49.208;5.364;2023-02-25T20:57:36;3.95;;;1.90;;
48026;SDS011;50714;49.208;5.364;2023-02-25T21:07:36;3.60;;;1.75;;
48026;SDS011;50714;49.208;5.364;2023-02-25T21:17:37;3.55;;;1.88;;
48026;SDS011;50714;49.208;5.364;2023-02-25T21:27:37;3.30;;;1.90;;
48026;SDS011;50714;49.208;5.364;2023-02-25T21:37:37;3.60;;;2.13;;
48026;SDS011;50714;49.208;5.364;2023-02-25T21:47:38;4.00;;;1.88;;
48026;SDS011;50714;49.208;5.364;2023-02-25T21:57:38;3.97;;;2.28;;
48026;SDS011;50714;49.208;5.364;2023-02-25T22:07:38;4.32;;;2.40;;
48026;SDS011;50714;49.208;5.364;2023-02-25T22:17:39;4.32;;;2.53;;
48026;SDS011;50714;49.208;5.364;2023-02-25T22:27:39;5.53;;;2.90;;
48026;SDS011;50714;49.208;5.364;2023-02-25T22:37:39;4.35;;;2.45;;
48026;SDS011;50714;49.208;5.364;2023-02-25T22:47:40;4.82;;;2.85;;
48026;SDS011;50714;49.208;5.364;2023-02-25T22:57:41;4.53;;;2.70;;
48026;SDS011;50714;49.208;5.364;2023-02-25T23:07:42;5.85;;;3.20;;
48026;SDS011;50714;49.208;5.364;2023-02-25T23:17:42;8.63;;;4.10;;
48026;SDS011;50714;49.208;5.364;2023-02-25T23:27:44;8.60;;;4.32;;
48026;SDS011;50714;49.208;5.364;2023-02-25T23:37:45;7.35;;;4.20;;
48026;SDS011;50714;49.208;5.364;2023-02-25T23:47:46;6.60;;;4.25;;
48026;SDS011;50714;49.208;5.364;2023-02-25T23:57:46;6.53;;;4.20;;
